Urb Roosevelt Gdns, Puerto Rico
Current Conditions -  °F | °C
As of 11:53 PM on Friday 24 Oct 2014 (Local Time) from TJNR Reporting Station
Clear Clear  
Wind Chill: 81°   Ceiling: Unl
Heat Index: 87°   Visibility: 10mi
Dew Point: 75°   Wind: 5mph
Humidity: 82%   Direction: 160°SSE
Pressure: 29.95"   Gusts: NA
Location:  18.2667°N, 65.6476°W
Report Text: TJNR 250353Z AUTO 16004KT 10SM CLR 27/24 A2995 RMK AO2 SLP141 T02720239 403220256 $
Loading
Personal Weather Stations






























Interactive Weather Map
Tropical Storm Tracking
New forecast layout! Learn more

10-Day Weather Forecast

Advertisements
Track Severe Weather on mobile